Vance Air Force Base
KEND : rendu visible

Aérodrome :











RETROUVEZ-NOUS SUR...

 
LOGIN :

S'inscrire | Disclaimer

   EN    FR    IT 

 









Légende :    VFR   VFR Marginal   IFR   IFR Intensif   IFR Très Intensif
Visi : 
Plafond : 
>= 8 km
>= 3000ft
5 à 8 km
1000 à 3000 ft
1500m à 5 km
500 à 1000 ft
800 à 1500m
200 à 500 ft
< 800m
< 200 ft
Symboles :   Orages  Brouillard  Fortes neiges  Fortes précipitations  Vent > 20 kt






- Altitude de l'aérodrome : 1307 ft


KEND - Vance Air Force Base

DERNIER METAR :
  • 200256Z AUTO 04007KT 10SM CLR M01/M04 A3054 RMK AO2 SLP357 T10081045 52012 $

METARs EXPIRÉS :
  • 200156Z AUTO 04008KT 10SM CLR 00/M04 A3052 RMK AO2 SLP351 T00031042 $
  • 200056Z AUTO 04010KT 10SM CLR 02/M03 A3050 RMK AO2 SLP343 T00201035 $

Prévision TAF périmée.



MET'MAP, la Météo Aéronautique d'un coup d'oeil ! - Copyright ORBIFLY Décembre 2007 - Disclaimer

ORBIFLY MET'MAP TEAM :

Programmation & Développement : Alexandra Zaïnal
Sur une idée originale de : Baudouin d'Aumeries
Assistance à la programmation : Marc-Olivier Méhu
Soutien technique & logistique : Manuel Goepfert

Contact : metmap@orbifly.com




SOURCES & CREDITS :

   NOAA       Earth
Advisory